Pineland, Florida
Current Conditions -  °F | °C
As of 6:53 PM on Wednesday 28 Jan 2015 (Local Time) from KFMY Reporting Station
Clear Clear  
Wind Chill: 56°   Ceiling: Unl
Heat Index: 56°   Visibility: 10mi
Dew Point: 34°   Wind: 7mph
Humidity: 44%   Direction: 40°NE
Pressure: 30.19"   Gusts: NA
Location:  26.66°N, 82.15°W
Report Text: KFMY 282353Z 04006KT 10SM CLR 13/01 A3019 RMK AO2 SLP224 T01330011 10194 20133 53017
Loading
Personal Weather Stations






























Interactive Weather Map New forecast layout! Learn more

10-Day Weather Forecast

Advertisements
Track Severe Weather on mobile